Time;durP1;ratioP1;P1;durP2;ratioP2;P2;SDS_P1;SDS_P2;PMS_P1;PMS_P2;Temp;Humidity;BMP_temperature;BMP_pressure;BME280_temperature;BME280_humidity;BME280_pressure;Samples;Min_cycle;Max_cycle;Signal;HPM_P1;HPM_P2
2021/05/27 00:02:36;;;;;;;21.00;6.87;;;;;;;11.12;78.41;100151.67;5007546;58;1143051;-77
2021/05/27 00:07:42;;;;;;;8.15;3.77;;;;;;;11.13;78.33;100145.41;5008694;58;1141182;-77
2021/05/27 00:12:49;;;;;;;10.27;5.40;;;;;;;11.15;78.53;100141.63;5008294;57;1138769;-74
2021/05/27 00:17:56;;;;;;;7.50;3.70;;;;;;;11.12;78.43;100143.73;5008131;58;1140858;-74
2021/05/27 00:23:01;;;;;;;5.00;2.90;;;;;;;11.07;78.17;100140.62;5008664;58;1138990;-77
2021/05/27 00:28:07;;;;;;;3.63;2.87;;;;;;;11.04;78.22;100140.88;5007917;58;1138714;-79
2021/05/27 00:33:13;;;;;;;9.37;2.97;;;;;;;11.00;78.35;100130.23;5007802;58;1138646;-72
2021/05/27 00:38:19;;;;;;;6.83;3.33;;;;;;;10.94;78.46;100131.58;5007703;58;1138663;-75
2021/05/27 00:43:26;;;;;;;5.78;2.95;;;;;;;10.90;78.90;100140.26;5012821;58;1142786;-75
2021/05/27 00:53:58;;;;;;;7.67;2.60;;;;;;;10.84;79.02;100136.83;5007694;58;1138661;-77
2021/05/27 00:59:04;;;;;;;4.50;2.87;;;;;;;10.85;79.11;100142.92;5007426;58;1138537;-74
2021/05/27 01:04:11;;;;;;;3.30;2.17;;;;;;;10.77;79.63;100158.63;5007426;58;1138471;-77
2021/05/27 01:09:17;;;;;;;6.07;2.43;;;;;;;10.65;81.87;100165.78;5007449;58;1138434;-73
2021/05/27 01:19:51;;;;;;;;;;;;;;;10.53;82.57;100162.84;5001404;58;1138902;-77
2021/05/27 01:24:58;;;;;;;2.10;2.00;;;;;;;10.56;82.57;100158.59;5020658;58;975971;-77
2021/05/27 01:30:08;;;;;;;3.77;2.37;;;;;;;10.57;82.38;100157.16;5007649;58;1136717;-76
2021/05/27 01:35:19;;;;;;;5.13;2.67;;;;;;;10.55;82.98;100176.27;5008612;58;1138986;-74
2021/05/27 01:40:27;;;;;;;2.70;2.30;;;;;;;10.56;83.13;100177.95;5008104;58;1138776;-76
2021/05/27 01:45:35;;;;;;;6.37;3.50;;;;;;;10.52;83.24;100169.94;5007656;58;1138743;-73
2021/05/27 01:50:44;;;;;;;3.70;2.90;;;;;;;10.47;83.72;100175.23;5007776;58;1138903;-75
2021/05/27 01:55:51;;;;;;;3.47;2.80;;;;;;;10.45;84.12;100177.16;5007166;58;1138907;-80
2021/05/27 02:00:59;;;;;;;2.57;2.27;;;;;;;10.41;84.54;100171.28;5007479;58;1138623;-81
2021/05/27 02:06:07;;;;;;;4.33;2.67;;;;;;;10.41;85.28;100174.41;5007168;58;1138634;-76
2021/05/27 02:11:12;;;;;;;4.37;3.20;;;;;;;10.41;85.55;100179.70;5006947;58;1138692;-76
2021/05/27 02:16:19;;;;;;;3.00;2.23;;;;;;;10.38;85.24;100184.78;5077624;57;1138658;-74
2021/05/27 02:21:26;;;;;;;6.17;2.83;;;;;;;10.41;86.05;100191.59;5091638;57;1138786;-77
2021/05/27 02:26:32;;;;;;;2.80;2.58;;;;;;;10.44;85.26;100185.58;5091781;57;1138705;-77
2021/05/27 02:31:51;;;;;;;3.43;2.30;;;;;;;10.44;85.49;100183.42;5091566;57;1138935;-76
2021/05/27 02:36:58;;;;;;;3.57;2.70;;;;;;;10.37;86.49;100186.22;5091448;57;1139002;-78
2021/05/27 02:42:06;;;;;;;3.70;2.60;;;;;;;10.33;86.52;100189.59;5091818;57;1138713;-74
2021/05/27 02:47:12;;;;;;;4.90;2.17;;;;;;;10.33;86.56;100188.75;5091905;57;1139001;-75
2021/05/27 02:52:20;;;;;;;4.27;2.20;;;;;;;10.34;86.71;100195.72;5092209;57;1138893;-75
2021/05/27 02:57:26;;;;;;;2.03;1.83;;;;;;;10.34;87.71;100199.20;5092407;57;1139152;-73
2021/05/27 03:02:33;;;;;;;2.08;1.65;;;;;;;10.36;86.86;100195.12;5093716;57;1138939;-77
2021/05/27 03:07:39;;;;;;;2.85;2.17;;;;;;;10.37;86.50;100191.52;5094591;56;1138882;-75
2021/05/27 03:12:46;;;;;;;1.82;1.67;;;;;;;10.33;86.55;100194.05;5092054;57;1138529;-75
2021/05/27 03:17:52;;;;;;;1.73;1.63;;;;;;;10.29;86.59;100210.63;5101695;56;1138415;-76
2021/05/27 03:23:00;;;;;;;2.20;2.00;;;;;;;10.27;86.85;100209.91;5121267;56;1138725;-75
2021/05/27 03:28:05;;;;;;;2.63;2.20;;;;;;;10.31;87.13;100213.15;5105008;56;1139222;-73
2021/05/27 03:33:13;;;;;;;2.00;1.90;;;;;;;10.28;87.49;100216.03;5123937;56;1138982;-73
2021/05/27 03:38:21;;;;;;;2.47;1.90;;;;;;;10.23;87.53;100223.03;5120093;56;1138895;-75
2021/05/27 03:43:29;;;;;;;2.30;2.10;;;;;;;10.23;87.82;100227.80;5126931;56;1138930;-72
2021/05/27 03:48:37;;;;;;;1.85;1.72;;;;;;;10.25;87.41;100237.42;5162015;56;1138925;-76
2021/05/27 03:53:43;;;;;;;3.17;1.67;;;;;;;10.26;88.44;100239.94;5115236;56;1139330;-74
2021/05/27 04:09:39;;;;;;;4.85;2.77;;;;;;;10.32;88.01;100252.67;5147761;56;1138724;-74
2021/05/27 04:15:19;;;;;;;1.62;1.52;;;;;;;10.32;87.98;100258.44;5147732;56;1138720;-77
2021/05/27 04:19:52;;;;;;;3.87;1.70;;;;;;;10.36;88.73;100262.53;5142472;56;1139190;-79
2021/05/27 04:24:58;;;;;;;2.30;2.13;;;;;;;10.39;88.77;100259.64;5146990;56;1138760;-77
2021/05/27 04:30:19;;;;;;;3.03;2.33;;;;;;;10.45;88.73;100261.77;5146576;56;1138860;-73
2021/05/27 04:35:32;;;;;;;7.07;2.80;;;;;;;10.50;89.15;100268.38;5145942;56;1138718;-78
2021/05/27 04:40:43;;;;;;;2.33;2.23;;;;;;;10.48;89.41;100270.30;5147100;56;1142143;-75
2021/05/27 04:45:50;;;;;;;3.63;2.93;;;;;;;10.49;89.43;100281.72;5146177;56;1138422;-73
2021/05/27 04:50:56;;;;;;;2.67;2.47;;;;;;;10.45;90.61;100282.92;5146295;56;1138949;-74
2021/05/27 04:56:03;;;;;;;3.33;3.00;;;;;;;10.45;90.73;100290.38;5141866;56;1138661;-76
2021/05/27 05:01:09;;;;;;;3.40;3.10;;;;;;;10.48;89.76;100293.25;5146558;56;1138682;-72
2021/05/27 05:06:15;;;;;;;2.80;2.57;;;;;;;10.51;90.05;100303.59;5146891;56;1138815;-74
2021/05/27 05:11:21;;;;;;;2.40;2.30;;;;;;;10.52;90.68;100307.92;5146831;56;1139009;-74
2021/05/27 05:16:27;;;;;;;3.40;3.10;;;;;;;10.56;90.78;100313.30;5146874;56;1138674;-77
2021/05/27 05:21:32;;;;;;;3.90;3.40;;;;;;;10.61;90.05;100309.81;5167898;56;1139141;-73
2021/05/27 05:26:38;;;;;;;3.30;3.00;;;;;;;10.68;90.08;100328.20;5172216;56;1138827;-78
2021/05/27 05:31:44;;;;;;;3.50;3.30;;;;;;;10.73;90.71;100326.00;5172187;56;1138643;-75
2021/05/27 05:36:50;;;;;;;5.33;3.87;;;;;;;10.67;89.69;100325.19;5172216;56;1138413;-78
2021/05/27 05:41:56;;;;;;;3.40;2.97;;;;;;;10.61;89.54;100334.93;5172215;56;1138921;-71
2021/05/27 05:47:01;;;;;;;4.37;2.87;;;;;;;10.52;88.96;100348.42;5171991;56;1138434;-78
2021/05/27 05:52:07;;;;;;;2.37;2.23;;;;;;;10.42;88.64;100357.19;5172022;56;1138803;-77
2021/05/27 05:57:13;;;;;;;6.53;2.50;;;;;;;10.43;89.17;100354.91;5171809;56;1138681;-76
2021/05/27 06:02:18;;;;;;;2.60;2.50;;;;;;;10.51;89.08;100352.51;5171645;56;1138840;-78
2021/05/27 06:07:25;;;;;;;2.70;2.50;;;;;;;10.63;88.68;100355.97;5172978;56;1139019;-79
2021/05/27 06:12:31;;;;;;;3.22;3.02;;;;;;;10.71;88.46;100371.56;5180261;56;1144188;-76
2021/05/27 06:17:38;;;;;;;5.37;3.00;;;;;;;10.71;87.58;100374.69;5159121;56;1139015;-73
2021/05/27 06:22:44;;;;;;;2.10;2.00;;;;;;;10.77;87.99;100386.95;5173784;56;1139006;-75
2021/05/27 06:27:52;;;;;;;3.47;3.27;;;;;;;10.75;86.71;100386.23;5172885;56;1139111;-76
2021/05/27 06:32:58;;;;;;;3.77;3.23;;;;;;;10.68;86.03;100390.83;5171641;56;1139140;-75
2021/05/27 06:38:03;;;;;;;6.53;3.67;;;;;;;10.64;86.30;100398.64;5171753;56;1139135;-76
2021/05/27 06:43:07;;;;;;;6.10;3.40;;;;;;;10.66;86.77;100396.72;5171855;56;1138890;-74
2021/05/27 06:48:13;;;;;;;3.97;2.97;;;;;;;10.67;86.56;100401.05;5172697;56;1139300;-72
2021/05/27 06:53:18;;;;;;;4.80;4.27;;;;;;;10.69;86.88;100418.48;5172550;56;1138928;-73
2021/05/27 06:58:22;;;;;;;4.50;4.13;;;;;;;10.75;86.88;100414.02;5172692;56;1138970;-74
2021/05/27 07:03:28;;;;;;;4.57;3.50;;;;;;;10.75;86.59;100421.10;5172777;56;1139353;-79
2021/05/27 07:08:33;;;;;;;7.60;3.97;;;;;;;10.77;86.34;100423.99;5173136;56;1147999;-77
2021/05/27 07:13:37;;;;;;;6.25;4.20;;;;;;;10.87;86.15;100427.58;5173369;56;1139092;-78
2021/05/27 07:18:41;;;;;;;3.67;3.40;;;;;;;11.07;85.42;100434.39;5174004;56;1139053;-77
2021/05/27 07:23:46;;;;;;;5.30;3.80;;;;;;;11.13;84.02;100438.72;5158879;56;1139033;-77
2021/05/27 07:28:50;;;;;;;4.80;4.40;;;;;;;11.34;84.25;100438.76;5112738;56;1139265;-74
2021/05/27 07:33:54;;;;;;;8.03;4.40;;;;;;;11.48;83.45;100438.46;5147781;56;1138928;-78
2021/05/27 07:38:58;;;;;;;7.03;4.70;;;;;;;11.60;82.70;100436.63;5147958;56;1138836;-75
2021/05/27 07:44:02;;;;;;;6.73;4.23;;;;;;;11.66;83.07;100451.16;5147766;56;1138865;-75
2021/05/27 07:49:06;;;;;;;4.33;4.03;;;;;;;11.77;82.54;100452.45;5147725;56;1139177;-77
2021/05/27 07:54:11;;;;;;;4.20;2.90;;;;;;;11.89;82.49;100451.45;5147884;56;1138943;-71
2021/05/27 07:59:15;;;;;;;4.00;3.17;;;;;;;11.92;81.06;100455.14;5147143;56;1139150;-74
2021/05/27 08:04:20;;;;;;;6.37;3.67;;;;;;;11.93;81.91;100453.69;5147833;56;1139603;-77
2021/05/27 08:09:25;;;;;;;10.43;4.30;;;;;;;12.02;80.27;100446.78;5147621;56;1139100;-76
2021/05/27 08:14:31;;;;;;;2.42;2.22;;;;;;;12.22;80.47;100445.91;5147145;56;1141388;-74
2021/05/27 08:19:38;;;;;;;4.83;2.47;;;;;;;12.53;78.00;100450.73;5147393;56;1139123;-74
2021/05/27 08:24:45;;;;;;;2.70;2.50;;;;;;;12.58;77.03;100451.19;5147702;56;1139254;-77
2021/05/27 08:29:51;;;;;;;2.30;2.10;;;;;;;12.58;77.01;100464.94;5147979;56;1139055;-74
2021/05/27 08:34:58;;;;;;;2.97;1.80;;;;;;;12.52;76.33;100472.13;5147923;56;1138960;-74
2021/05/27 08:40:07;;;;;;;8.20;2.52;;;;;;;12.46;76.19;100468.17;5147357;56;1138850;-74
2021/05/27 08:45:15;;;;;;;2.40;2.17;;;;;;;12.49;75.85;100476.36;5150365;56;1139147;-77
2021/05/27 08:50:40;;;;;;;3.27;2.37;;;;;;;12.52;76.69;100476.10;5150169;56;1138893;-73
2021/05/27 08:55:40;;;;;;;2.25;2.02;;;;;;;12.64;75.20;100471.89;5147784;56;1138976;-78
2021/05/27 09:00:47;;;;;;;1.70;1.60;;;;;;;12.63;75.11;100475.52;5161874;56;1139177;-76
2021/05/27 09:06:03;;;;;;;1.70;1.63;;;;;;;12.52;74.27;100475.61;5177454;56;1139329;-77
2021/05/27 09:11:15;;;;;;;2.43;2.20;;;;;;;12.47;75.02;100476.48;5176947;56;1138817;-73
2021/05/27 09:16:21;;;;;;;1.90;1.60;;;;;;;12.47;75.44;100480.95;5177023;56;1139201;-75
2021/05/27 09:21:41;;;;;;;2.27;2.07;;;;;;;12.64;76.13;100482.51;5177435;56;1138847;-75
2021/05/27 09:26:56;;;;;;;2.30;2.12;;;;;;;12.81;76.09;100496.97;5174196;56;1138934;-77
2021/05/27 09:32:07;;;;;;;1.40;1.40;;;;;;;12.77;74.59;100504.83;5171596;56;1138695;-73
2021/05/27 09:37:29;;;;;;;4.13;1.50;;;;;;;12.77;73.38;100491.56;5170417;56;1138964;-79
2021/05/27 09:42:51;;;;;;;4.03;1.57;;;;;;;12.87;74.35;100496.41;5176024;56;1138988;-77
2021/05/27 09:48:00;;;;;;;2.05;1.52;;;;;;;13.03;73.15;100497.23;5172013;56;1138900;-76
2021/05/27 09:53:23;;;;;;;1.10;1.10;;;;;;;13.21;73.92;100500.95;5171960;56;1139060;-77
2021/05/27 09:58:32;;;;;;;2.00;1.90;;;;;;;13.31;72.28;100500.47;5170537;56;1139068;-76
2021/05/27 10:03:40;;;;;;;2.27;1.77;;;;;;;13.44;72.36;100497.59;5154855;56;1138861;-81
2021/05/27 10:08:57;;;;;;;2.25;1.50;;;;;;;13.50;72.82;100506.31;5134766;56;1139315;-80
2021/05/27 10:14:04;;;;;;;3.45;1.60;;;;;;;13.68;70.81;100513.96;5134236;56;1139067;-74
2021/05/27 10:19:10;;;;;;;10.90;3.53;;;;;;;13.63;69.90;100529.47;5133422;55;1139005;-78
2021/05/27 10:24:16;;;;;;;1.67;1.57;;;;;;;13.68;70.02;100521.09;5132033;56;1141191;-75
2021/05/27 10:29:25;;;;;;;1.73;1.57;;;;;;;13.68;70.02;100521.09;4983936;58;1138858;-76
2021/05/27 10:34:50;;;;;;;1.17;1.07;;;;;;;13.58;70.88;100518.92;5139637;56;1138884;-77
2021/05/27 10:39:56;;;;;;;2.10;1.83;;;;;;;13.45;70.91;100518.32;5132254;56;1138820;-78
2021/05/27 10:45:10;;;;;;;1.90;1.80;;;;;;;13.41;70.23;100531.55;5130861;56;1138821;-75
2021/05/27 10:50:16;;;;;;;3.40;1.73;;;;;;;13.38;70.92;100532.17;5129108;55;1138750;-74
2021/05/27 10:55:54;;;;;;;4.47;2.27;;;;;;;13.30;70.01;100529.83;5134326;56;1138653;-78
2021/05/27 11:01:00;;;;;;;1.93;1.47;;;;;;;13.25;70.55;100529.41;5132386;56;1138980;-74
2021/05/27 11:06:34;;;;;;;2.77;1.60;;;;;;;13.32;71.18;100531.38;5135303;56;1138919;-77
2021/05/27 11:11:45;;;;;;;1.80;1.70;;;;;;;13.52;70.97;100531.42;4981343;57;1138903;-80
2021/05/27 11:17:20;;;;;;;2.00;1.57;;;;;;;13.75;70.46;100528.84;4977632;57;1138837;-75
2021/05/27 11:22:47;;;;;;;5.20;2.13;;;;;;;13.84;69.47;100530.69;4981237;57;1139011;-80
2021/05/27 11:28:08;;;;;;;4.20;2.27;;;;;;;13.84;69.47;100536.00;4972915;57;1138911;-76
2021/05/27 11:33:29;;;;;;;5.27;2.60;;;;;;;13.89;68.97;100536.92;4917835;57;1139057;-79
2021/05/27 11:38:40;;;;;;;7.00;2.27;;;;;;;14.07;69.83;100529.89;4915078;57;1139101;-82
2021/05/27 11:43:49;;;;;;;2.87;1.42;;;;;;;14.29;67.69;100522.11;4914482;58;1138841;-79
2021/05/27 11:48:57;;;;;;;2.10;1.67;;;;;;;14.51;67.72;100522.32;5043665;56;1138836;-76
2021/05/27 11:54:10;;;;;;;1.50;1.40;;;;;;;14.54;66.22;100526.84;5070510;56;1138960;-73
2021/05/27 11:59:25;;;;;;;3.65;1.00;;;;;;;14.48;66.69;100532.76;5066646;57;1138848;-77
2021/05/27 12:04:33;;;;;;;1.27;1.20;;;;;;;14.46;64.94;100524.56;5064623;56;1138754;-79
2021/05/27 12:09:45;;;;;;;2.37;2.17;;;;;;;14.41;66.14;100526.31;5067736;56;1139345;-77
2021/05/27 12:14:58;;;;;;;8.47;2.27;;;;;;;14.39;66.23;100519.77;5069122;56;1139026;-72
2021/05/27 12:20:15;;;;;;;1.07;0.97;;;;;;;14.42;66.70;100519.52;5067536;56;1139014;-79
2021/05/27 12:25:30;;;;;;;1.13;1.07;;;;;;;14.46;66.55;100521.91;5071673;56;1139018;-76
2021/05/27 12:30:38;;;;;;;1.00;0.90;;;;;;;14.67;65.31;100516.71;5091601;56;1138969;-78
2021/05/27 12:35:44;;;;;;;0.80;0.80;;;;;;;14.93;62.92;100514.73;5132895;56;1138764;-75
2021/05/27 12:41:00;;;;;;;0.90;0.90;;;;;;;14.91;62.40;100510.89;5132660;56;1139021;-80
2021/05/27 12:46:10;;;;;;;6.97;4.70;;;;;;;14.76;62.31;100522.52;5132880;56;1138723;-79
2021/05/27 12:51:18;;;;;;;2.77;2.37;;;;;;;14.72;64.33;100529.59;5159028;56;1139313;-83
2021/05/27 12:56:32;;;;;;;1.27;1.17;;;;;;;15.11;64.57;100519.14;5157577;56;1139193;-80
2021/05/27 13:01:47;;;;;;;1.30;0.68;;;;;;;15.29;62.43;100510.33;5158568;56;1139158;-76
2021/05/27 13:06:53;;;;;;;1.23;1.13;;;;;;;15.73;63.43;100510.01;5120988;56;1139111;-83
2021/05/27 13:12:00;;;;;;;1.13;1.13;;;;;;;15.83;60.69;100504.93;5090606;57;1138378;-78
2021/05/27 13:17:17;;;;;;;1.00;1.00;;;;;;;15.68;62.40;100499.79;5090268;57;1138604;-76
2021/05/27 13:22:32;;;;;;;0.90;0.90;;;;;;;15.58;63.16;100503.03;5090135;57;1138812;-79
2021/05/27 13:27:52;;;;;;;0.80;0.80;;;;;;;15.71;63.79;100500.83;5090259;57;1138716;-80
2021/05/27 13:33:11;;;;;;;1.37;1.27;;;;;;;15.94;61.96;100517.19;5094217;57;1138672;-78
2021/05/27 13:38:20;;;;;;;5.73;1.27;;;;;;;16.19;57.55;100509.71;5097622;57;1138431;-76
2021/05/27 13:43:34;;;;;;;2.03;1.77;;;;;;;16.52;57.89;100509.44;5142981;56;1138907;-75
2021/05/27 13:48:35;;;;;;;1.33;1.17;;;;;;;16.50;56.54;100512.77;5181457;56;1138531;-76
2021/05/27 13:53:41;;;;;;;0.73;0.73;;;;;;;16.33;55.41;100507.00;5183438;56;1138739;-77
2021/05/27 13:58:47;;;;;;;0.60;0.60;;;;;;;16.16;57.41;100510.55;5183402;56;1138591;-79
2021/05/27 14:03:53;;;;;;;4.30;1.07;;;;;;;16.22;58.56;100508.56;5177726;56;1148132;-76
2021/05/27 14:09:01;;;;;;;0.57;0.57;;;;;;;16.39;57.44;100515.70;5098171;56;1138594;-79
2021/05/27 14:14:08;;;;;;;0.80;0.80;;;;;;;16.36;56.24;100512.00;5098301;56;1138855;-76
2021/05/27 14:19:14;;;;;;;0.87;0.70;;;;;;;16.30;57.12;100518.48;5098416;56;1138971;-77
2021/05/27 14:24:20;;;;;;;0.90;0.90;;;;;;;16.16;56.90;100510.55;5098630;56;1139016;-74
2021/05/27 14:29:25;;;;;;;0.83;0.83;;;;;;;16.05;56.77;100514.77;5098408;56;1139088;-79
2021/05/27 14:34:31;;;;;;;2.30;1.40;;;;;;;15.83;56.91;100523.60;5134787;56;1139192;-77
2021/05/27 14:39:37;;;;;;;2.73;2.60;;;;;;;15.70;58.74;100539.14;5175607;56;1139140;-75
2021/05/27 14:44:43;;;;;;;541.93;315.67;;;;;;;15.30;66.77;100590.61;5175935;56;1139271;-75
2021/05/27 14:49:48;;;;;;;113.30;68.57;;;;;;;14.27;68.87;100604.72;5174926;56;1147256;-78
2021/05/27 14:54:54;;;;;;;2.37;1.90;;;;;;;13.49;72.13;100599.44;5174941;56;1145374;-74
2021/05/27 15:00:02;;;;;;;1046.93;626.60;;;;;;;13.03;73.08;100584.84;5175596;56;1139103;-76
2021/05/27 15:05:08;;;;;;;79.77;37.83;;;;;;;12.88;73.26;100587.50;5174873;56;1149383;-76
2021/05/27 15:10:15;;;;;;;15.80;8.43;;;;;;;12.88;72.98;100576.40;5175241;56;1143027;-75
2021/05/27 15:15:21;;;;;;;5.23;2.40;;;;;;;13.18;73.65;100575.58;5175696;56;1140994;-78
2021/05/27 15:20:27;;;;;;;9.67;8.60;;;;;;;13.48;73.41;100569.86;5175956;56;1138951;-75
2021/05/27 15:25:33;;;;;;;7.58;6.60;;;;;;;13.64;73.34;100568.36;5175120;56;1139148;-78
2021/05/27 15:30:40;;;;;;;3.17;2.93;;;;;;;13.65;73.70;100575.36;5175969;56;1139094;-77
2021/05/27 15:35:46;;;;;;;40.83;32.53;;;;;;;13.68;73.82;100590.20;5175485;56;1139093;-79
2021/05/27 15:40:52;;;;;;;13.20;9.20;;;;;;;13.61;76.28;100594.36;5176063;56;1143384;-75
2021/05/27 15:46:01;;;;;;;2.15;2.05;;;;;;;13.53;76.55;100587.09;5175965;56;1141207;-76
2021/05/27 15:51:07;;;;;;;12.43;11.33;;;;;;;13.47;76.59;100578.81;5175797;56;1139045;-77
2021/05/27 15:56:13;;;;;;;5.17;3.97;;;;;;;13.43;78.09;100585.39;5175877;56;1143129;-77
2021/05/27 16:01:19;;;;;;;2.60;1.73;;;;;;;13.36;78.83;100590.39;5175919;56;1139000;-74
2021/05/27 16:06:24;;;;;;;1.23;1.20;;;;;;;13.36;78.83;100590.39;5175794;56;1139126;-74
2021/05/27 16:11:30;;;;;;;7.10;3.53;;;;;;;13.30;78.45;100596.23;5175860;56;1138905;-76
2021/05/27 16:16:36;;;;;;;17.10;12.43;;;;;;;13.30;78.45;100609.02;5175946;56;1138865;-74
2021/05/27 16:21:42;;;;;;;10.75;8.90;;;;;;;13.25;78.48;100603.30;5182224;56;1143040;-75
2021/05/27 16:26:49;;;;;;;16.73;8.03;;;;;;;13.19;77.92;100597.18;5175630;56;1141017;-78
2021/05/27 16:31:55;;;;;;;13.17;6.73;;;;;;;13.20;77.91;100592.70;5175676;56;1141114;-77
2021/05/27 16:42:25;;;;;;;3.03;2.00;;;;;;;13.24;77.52;100575.54;4973961;57;1138322;-78
2021/05/27 16:47:31;;;;;;;10.03;4.37;;;;;;;13.33;77.05;100579.55;5172330;55;1138462;-77
2021/05/27 16:52:37;;;;;;;2.90;2.40;;;;;;;13.38;76.80;100576.00;5137928;56;1140492;-75
2021/05/27 16:57:45;;;;;;;12.40;3.80;;;;;;;13.42;76.48;100576.58;5146172;55;1139172;-76
2021/05/27 17:02:52;;;;;;;9.85;5.67;;;;;;;13.43;76.19;100579.59;5127165;55;1140909;-75
2021/05/27 17:08:00;;;;;;;2.47;2.08;;;;;;;13.38;75.87;100568.52;5099921;56;1138595;-76
2021/05/27 17:13:06;;;;;;;48.23;21.27;;;;;;;13.32;75.83;100569.05;5099626;56;1138650;-77
2021/05/27 17:18:12;;;;;;;13.00;5.23;;;;;;;13.30;75.48;100574.49;5099122;56;1142760;-79
2021/05/27 17:23:18;;;;;;;55.13;24.03;;;;;;;13.20;75.53;100576.29;5099515;56;1140547;-76
2021/05/27 17:28:24;;;;;;;34.63;11.47;;;;;;;13.10;75.39;100584.69;5098979;56;1143217;-84
2021/05/27 17:33:30;;;;;;;15.67;9.83;;;;;;;13.03;75.49;100584.84;5099346;56;1142904;-77
2021/05/27 17:38:39;;;;;;;13.50;8.57;;;;;;;12.90;75.71;100587.73;5099186;56;1140708;-75
2021/05/27 17:43:44;;;;;;;19.17;11.80;;;;;;;12.81;75.54;100589.86;5097366;56;1150191;-82
2021/05/27 17:48:52;;;;;;;6.03;4.75;;;;;;;12.73;75.77;100588.33;5099200;56;1143475;-76
2021/05/27 17:53:58;;;;;;;28.35;13.03;;;;;;;12.67;76.18;100596.34;5100030;56;1139091;-72
2021/05/27 17:59:04;;;;;;;64.70;40.67;;;;;;;12.71;76.20;100587.61;5085320;56;1143042;-83
2021/05/27 18:04:11;;;;;;;12.90;7.73;;;;;;;12.75;76.49;100593.51;5099322;56;1143271;-78
2021/05/27 18:09:17;;;;;;;28.07;11.17;;;;;;;12.74;76.47;100588.69;5099509;56;1141272;-77
2021/05/27 18:14:24;;;;;;;46.17;31.77;;;;;;;12.75;76.52;100598.81;5099007;56;1143051;-80
2021/05/27 18:19:30;;;;;;;5.63;4.13;;;;;;;12.74;76.61;100613.90;5099108;56;1143078;-77
2021/05/27 18:24:35;;;;;;;14.83;8.30;;;;;;;12.77;76.45;100608.34;5099180;56;1138939;-72
2021/05/27 18:29:41;;;;;;;11.27;7.10;;;;;;;12.85;76.61;100611.16;5098621;56;1141417;-80
2021/05/27 18:34:47;;;;;;;48.13;23.57;;;;;;;13.00;76.81;100615.64;5098992;56;1140936;-79
2021/05/27 18:39:54;;;;;;;18.65;11.55;;;;;;;13.06;76.68;100615.61;5099020;56;1143485;-79
2021/05/27 18:45:01;;;;;;;42.97;13.30;;;;;;;13.09;76.58;100616.67;5099925;56;1143235;-79
2021/05/27 18:50:08;;;;;;;36.63;18.90;;;;;;;13.13;76.51;100618.95;5099770;56;1143362;-80
2021/05/27 18:55:14;;;;;;;25.30;13.00;;;;;;;13.20;76.46;100621.44;5100214;56;1143305;-76
2021/05/27 19:00:22;;;;;;;55.92;18.17;;;;;;;13.24;76.42;100621.53;5100223;56;1143199;-77
2021/05/27 19:05:29;;;;;;;11.77;5.87;;;;;;;13.22;76.27;100623.48;5099329;56;1142538;-77
2021/05/27 19:10:36;;;;;;;9.77;6.33;;;;;;;13.11;76.15;100634.65;5099874;56;1140946;-78
2021/05/27 19:15:42;;;;;;;15.10;8.27;;;;;;;13.11;76.15;100634.65;5126295;55;1138597;-74
2021/05/27 19:20:48;;;;;;;16.10;9.00;;;;;;;13.13;76.11;100636.69;5139916;55;1140771;-79
2021/05/27 19:25:56;;;;;;;65.00;31.55;;;;;;;13.08;76.21;100647.70;5141228;56;1141016;-75
2021/05/27 19:31:02;;;;;;;90.20;34.18;;;;;;;13.01;76.31;100662.45;5140165;55;1143162;-78
2021/05/27 19:36:08;;;;;;;71.17;27.87;;;;;;;12.92;76.39;100666.75;5139849;55;1143290;-81
2021/05/27 19:41:15;;;;;;;83.37;45.97;;;;;;;12.87;76.40;100670.27;5140432;55;1143259;-81
2021/05/27 19:46:20;;;;;;;34.23;21.13;;;;;;;12.89;76.48;100671.47;5132197;55;1143312;-84
2021/05/27 19:51:26;;;;;;;34.17;20.33;;;;;;;12.91;76.78;100684.14;5005393;57;1143168;-79
2021/05/27 19:56:33;;;;;;;24.10;13.13;;;;;;;12.84;76.80;100677.16;5037416;57;1143104;-77
2021/05/27 20:01:39;;;;;;;7.77;4.73;;;;;;;12.75;76.85;100685.07;5131138;55;1143095;-73
2021/05/27 20:06:46;;;;;;;8.45;4.65;;;;;;;12.61;76.74;100680.44;5148981;55;1139075;-78
2021/05/27 20:11:52;;;;;;;18.25;10.43;;;;;;;12.51;77.18;100686.16;5124771;55;1139358;-75
2021/05/27 20:17:00;;;;;;;10.23;6.30;;;;;;;12.44;77.46;100686.78;5131819;55;1143111;-84
2021/05/27 20:22:07;;;;;;;31.00;13.40;;;;;;;12.36;77.81;100691.89;5131622;55;1141279;-77
2021/05/27 20:27:13;;;;;;;15.17;7.50;;;;;;;12.30;78.07;100691.90;5130163;55;1143197;-82
2021/05/27 20:32:20;;;;;;;9.83;6.70;;;;;;;12.25;78.37;100695.40;5127618;55;1141248;-81
2021/05/27 20:37:26;;;;;;;18.43;12.37;;;;;;;12.18;78.94;100694.23;5133114;56;1138967;-78
2021/05/27 20:42:32;;;;;;;12.00;4.13;;;;;;;12.13;79.10;100697.25;5123721;55;1143179;-78
2021/05/27 20:47:41;;;;;;;7.67;6.17;;;;;;;12.08;79.32;100687.48;5132763;55;1141218;-83
2021/05/27 20:52:47;;;;;;;6.17;4.87;;;;;;;12.05;79.42;100697.05;5131894;55;1139194;-79
2021/05/27 20:57:53;;;;;;;14.28;7.10;;;;;;;12.06;79.50;100700.53;5131379;55;1138846;-80
2021/05/27 21:02:59;;;;;;;5.87;4.20;;;;;;;12.09;79.46;100697.13;5132864;55;1140988;-73
2021/05/27 21:08:05;;;;;;;8.40;5.67;;;;;;;12.08;79.53;100694.12;5129528;55;1138880;-77
2021/05/27 21:13:11;;;;;;;8.80;5.40;;;;;;;12.06;79.58;100693.91;5130241;55;1138348;-74
2021/05/27 21:18:25;;;;;;;4.07;3.77;;;;;;;12.12;79.53;100698.70;5173958;55;1138696;-78
2021/05/27 21:23:31;;;;;;;6.73;4.47;;;;;;;12.22;79.55;100708.94;5171990;55;1138644;-78
2021/05/27 21:28:37;;;;;;;13.63;6.90;;;;;;;12.28;79.42;100705.77;5171991;55;1138660;-78
2021/05/27 21:33:43;;;;;;;7.23;4.70;;;;;;;12.32;79.11;100715.16;5171973;55;1140718;-76
2021/05/27 21:38:48;;;;;;;7.27;3.27;;;;;;;12.16;78.49;100727.98;5172323;55;1138623;-73
2021/05/27 21:43:54;;;;;;;12.35;5.17;;;;;;;11.96;78.44;100738.37;5171621;55;1138789;-78
2021/05/27 21:49:00;;;;;;;11.68;5.28;;;;;;;11.76;78.82;100736.96;5206462;56;1140883;-79
2021/05/27 21:54:07;;;;;;;54.53;20.23;;;;;;;11.62;79.20;100736.18;5207317;55;1140708;-79
2021/05/27 21:59:13;;;;;;;63.80;22.37;;;;;;;11.67;79.79;100742.94;5206848;56;1142802;-79
2021/05/27 22:04:20;;;;;;;27.17;11.07;;;;;;;11.78;79.78;100745.61;5206254;55;1143067;-80
2021/05/27 22:09:26;;;;;;;62.70;23.17;;;;;;;11.79;79.07;100747.30;5206550;56;1142899;-76
2021/05/27 22:14:33;;;;;;;31.27;11.40;;;;;;;11.84;79.35;100751.28;5207136;56;1142829;-73
2021/05/27 22:19:39;;;;;;;12.50;6.00;;;;;;;11.80;78.79;100756.93;5200203;55;1143019;-76
2021/05/27 22:24:45;;;;;;;5.53;3.97;;;;;;;11.66;78.62;100766.41;5128610;56;1140776;-76
2021/05/27 22:29:52;;;;;;;5.63;4.10;;;;;;;11.60;78.69;100768.60;5161068;56;1138764;-80
2021/05/27 22:34:59;;;;;;;8.08;4.60;;;;;;;11.38;78.28;100767.72;5137164;56;1138687;-78
2021/05/27 22:40:06;;;;;;;7.83;5.10;;;;;;;11.20;78.65;100770.80;5121501;56;1138627;-76
2021/05/27 22:45:12;;;;;;;5.37;3.70;;;;;;;11.12;78.93;100767.06;5120715;57;1138568;-77
2021/05/27 22:50:19;;;;;;;6.00;3.80;;;;;;;11.12;79.10;100767.06;5120944;56;1138503;-76
2021/05/27 22:55:27;;;;;;;4.10;3.00;;;;;;;11.07;78.83;100765.23;5120865;56;1138631;-77
2021/05/27 23:00:32;;;;;;;4.13;2.80;;;;;;;11.02;78.81;100762.09;5156906;56;1138760;-74
2021/05/27 23:05:39;;;;;;;6.23;3.50;;;;;;;10.93;78.98;100764.48;5166933;55;1138685;-71
2021/05/27 23:10:45;;;;;;;4.77;2.37;;;;;;;10.89;79.10;100760.37;5166935;55;1138862;-77
2021/05/27 23:15:50;;;;;;;2.80;2.30;;;;;;;10.80;78.97;100759.75;5137867;55;1138943;-73
2021/05/27 23:20:56;;;;;;;8.18;2.95;;;;;;;10.82;79.15;100760.96;5121045;57;1139200;-75
2021/05/27 23:26:02;;;;;;;20.85;6.97;;;;;;;10.81;79.07;100761.44;5121061;57;1138935;-75
2021/05/27 23:31:08;;;;;;;5.30;3.43;;;;;;;10.72;78.94;100762.10;5121387;56;1140920;-73
2021/05/27 23:36:14;;;;;;;5.20;2.90;;;;;;;10.65;78.87;100754.75;5121485;56;1139290;-76
2021/05/27 23:41:19;;;;;;;4.63;3.43;;;;;;;10.56;78.85;100752.29;5121895;56;1139083;-78